createdAt,value
2018-06-18T00:01:47.767Z,-45
2018-06-18T00:04:14.663Z,-45
2018-06-18T00:06:41.595Z,-46
2018-06-18T00:09:09.831Z,-47
2018-06-18T00:11:36.723Z,-46
2018-06-18T00:14:03.724Z,-46
2018-06-18T00:16:30.638Z,-48
2018-06-18T00:18:57.524Z,-45
2018-06-18T00:21:24.418Z,-45
2018-06-18T00:23:51.340Z,-45
2018-06-18T00:26:18.447Z,-45
2018-06-18T00:28:45.391Z,-46
2018-06-18T00:31:12.287Z,-46
2018-06-18T00:33:39.207Z,-46
2018-06-18T00:36:06.131Z,-46
2018-06-18T00:38:33.031Z,-46
2018-06-18T00:40:59.938Z,-45
2018-06-18T00:43:26.918Z,-45
2018-06-18T00:45:53.846Z,-45
2018-06-18T00:48:20.768Z,-45
2018-06-18T00:50:47.759Z,-45
2018-06-18T00:53:14.715Z,-45
2018-06-18T00:55:53.198Z,-46
2018-06-18T00:58:20.123Z,-46
2018-06-18T01:00:47.650Z,-46
2018-06-18T01:03:14.705Z,-45
2018-06-18T01:05:41.650Z,-45
2018-06-18T01:08:08.602Z,-45
2018-06-18T01:10:35.498Z,-46
2018-06-18T01:13:02.434Z,-46
2018-06-18T01:15:29.339Z,-45
2018-06-18T01:17:56.255Z,-46
2018-06-18T01:20:23.299Z,-45
2018-06-18T01:22:59.391Z,-45
2018-06-18T01:25:26.289Z,-45
2018-06-18T01:27:53.260Z,-45
2018-06-18T01:30:20.203Z,-45
2018-06-18T01:32:47.135Z,-45
2018-06-18T01:35:14.040Z,-46
2018-06-18T01:37:41.023Z,-46
2018-06-18T01:40:07.907Z,-46
2018-06-18T01:42:35.150Z,-46
2018-06-18T01:45:02.615Z,-45
2018-06-18T01:47:29.543Z,-46
2018-06-18T01:49:56.439Z,-45
2018-06-18T01:52:23.343Z,-46
2018-06-18T01:54:50.307Z,-45
2018-06-18T01:57:17.221Z,-45
2018-06-18T01:59:44.158Z,-46
2018-06-18T02:02:11.035Z,-45
2018-06-18T02:04:37.952Z,-46
2018-06-18T02:07:04.862Z,-45
2018-06-18T02:09:31.758Z,-46
2018-06-18T02:11:58.736Z,-46
2018-06-18T02:14:25.647Z,-45
2018-06-18T02:16:52.555Z,-46
2018-06-18T02:19:19.544Z,-46
2018-06-18T02:21:46.548Z,-45
2018-06-18T02:24:13.479Z,-46
2018-06-18T02:26:40.423Z,-46
2018-06-18T02:29:13.276Z,-46
2018-06-18T02:31:46.796Z,-46
2018-06-18T02:35:19.875Z,-46
2018-06-18T02:37:52.499Z,-45
2018-06-18T02:40:25.278Z,-45
2018-06-18T02:42:52.188Z,-45
2018-06-18T02:45:19.120Z,-45
2018-06-18T02:47:46.025Z,-45
2018-06-18T02:50:13.023Z,-46
2018-06-18T02:52:39.987Z,-46
2018-06-18T02:55:06.954Z,-46
2018-06-18T02:57:34.146Z,-46
2018-06-18T03:00:01.046Z,-45
2018-06-18T03:02:27.967Z,-46
2018-06-18T03:04:54.912Z,-46
2018-06-18T03:07:21.807Z,-46
2018-06-18T03:09:48.744Z,-46
2018-06-18T03:12:15.655Z,-45
2018-06-18T03:14:42.602Z,-46
2018-06-18T03:17:09.499Z,-46
2018-06-18T03:19:42.372Z,-46
2018-06-18T03:22:15.054Z,-46
2018-06-18T03:24:47.851Z,-46
2018-06-18T03:27:20.511Z,-46
2018-06-18T03:29:47.422Z,-45
2018-06-18T03:32:16.267Z,-45
2018-06-18T03:34:43.270Z,-46
2018-06-18T03:37:12.496Z,-45
2018-06-18T03:39:39.381Z,-45
2018-06-18T03:42:06.709Z,-45
2018-06-18T03:44:37.218Z,-46
2018-06-18T03:47:13.139Z,-46
2018-06-18T03:49:40.295Z,-45
2018-06-18T03:52:07.211Z,-46
2018-06-18T03:54:34.114Z,-45
2018-06-18T03:57:01.144Z,-45
2018-06-18T03:59:28.130Z,-45
2018-06-18T04:02:03.427Z,-46
2018-06-18T04:04:47.211Z,-45
2018-06-18T04:07:21.687Z,-45
2018-06-18T04:09:54.267Z,-45
2018-06-18T04:12:21.260Z,-45
2018-06-18T04:14:48.340Z,-46
2018-06-18T04:17:15.254Z,-46
2018-06-18T04:19:42.143Z,-48
2018-06-18T04:22:09.159Z,-47
2018-06-18T04:24:36.138Z,-46
2018-06-18T04:27:03.160Z,-47
2018-06-18T04:29:30.306Z,-47
2018-06-18T04:31:57.203Z,-46
2018-06-18T04:34:34.475Z,-47
2018-06-18T04:37:01.407Z,-46
2018-06-18T04:39:28.664Z,-47
2018-06-18T04:42:01.239Z,-47
2018-06-18T04:44:34.012Z,-47
2018-06-18T04:47:06.753Z,-47
2018-06-18T04:49:39.337Z,-48
2018-06-18T04:52:06.262Z,-47
2018-06-18T04:54:33.166Z,-48
2018-06-18T04:57:00.838Z,-47
2018-06-18T04:59:27.738Z,-47
2018-06-18T05:01:54.682Z,-47
2018-06-18T05:04:21.555Z,-47
2018-06-18T05:06:48.494Z,-47
2018-06-18T05:09:41.439Z,-47
2018-06-18T05:12:08.355Z,-48
2018-06-18T05:14:35.238Z,-47
2018-06-18T05:17:02.367Z,-47
2018-06-18T05:19:29.339Z,-47
2018-06-18T05:21:56.239Z,-47
2018-06-18T05:24:23.131Z,-46
2018-06-18T05:26:51.886Z,-47
2018-06-18T05:29:20.246Z,-47
2018-06-18T05:31:47.262Z,-47
2018-06-18T05:34:16.787Z,-47
2018-06-18T05:36:43.754Z,-47
2018-06-18T05:39:10.674Z,-47
2018-06-18T05:41:37.610Z,-47
2018-06-18T05:44:04.499Z,-47
2018-06-18T05:46:31.411Z,-47
2018-06-18T05:48:58.335Z,-47
2018-06-18T05:51:25.243Z,-47
2018-06-18T05:53:52.159Z,-48
2018-06-18T05:56:19.087Z,-47
2018-06-18T05:58:45.998Z,-47
2018-06-18T06:01:13.143Z,-47
2018-06-18T06:03:40.134Z,-47
2018-06-18T06:06:07.040Z,-47
2018-06-18T06:08:34.013Z,-47
2018-06-18T06:11:00.943Z,-47
2018-06-18T06:13:27.930Z,-47
2018-06-18T06:15:54.827Z,-47
2018-06-18T06:18:21.740Z,-47
2018-06-18T06:20:54.987Z,-47
2018-06-18T06:23:21.919Z,-47
2018-06-18T06:25:49.376Z,-47
2018-06-18T06:28:16.307Z,-47
2018-06-18T06:30:43.215Z,-47
2018-06-18T06:33:10.127Z,-47
2018-06-18T06:35:38.836Z,-47
2018-06-18T06:38:05.770Z,-47
2018-06-18T06:40:32.732Z,-47
2018-06-18T06:42:59.776Z,-47
2018-06-18T06:45:26.670Z,-47
2018-06-18T06:47:53.600Z,-47
2018-06-18T06:50:20.503Z,-47
2018-06-18T06:52:47.411Z,-47
2018-06-18T06:55:14.298Z,-48
2018-06-18T06:57:41.213Z,-48
2018-06-18T07:00:08.100Z,-47
2018-06-18T07:02:34.987Z,-48
2018-06-18T07:05:02.088Z,-47
2018-06-18T07:07:28.994Z,-47
2018-06-18T07:09:55.936Z,-47
2018-06-18T07:12:22.855Z,-47
2018-06-18T07:14:49.756Z,-47
2018-06-18T07:17:16.674Z,-50
2018-06-18T07:19:43.654Z,-52
2018-06-18T07:22:10.551Z,-53
2018-06-18T07:24:37.448Z,-52
2018-06-18T07:27:04.438Z,-53
2018-06-18T07:29:31.371Z,-53
2018-06-18T07:31:58.556Z,-53
2018-06-18T07:34:25.443Z,-53
2018-06-18T07:36:52.658Z,-53
2018-06-18T07:39:19.562Z,-53
2018-06-18T07:41:46.467Z,-53
2018-06-18T07:44:13.447Z,-53
2018-06-18T07:46:40.347Z,-53
2018-06-18T07:49:07.259Z,-54
2018-06-18T07:51:34.217Z,-54
2018-06-18T07:54:01.088Z,-52
2018-06-18T07:56:28.018Z,-53
2018-06-18T07:58:54.926Z,-53
2018-06-18T08:01:21.855Z,-52
2018-06-18T08:03:48.766Z,-53
2018-06-18T08:06:15.651Z,-53
2018-06-18T08:08:42.639Z,-54
2018-06-18T08:11:09.518Z,-54
2018-06-18T08:13:36.419Z,-53
2018-06-18T08:16:03.305Z,-53
2018-06-18T08:18:30.224Z,-53
2018-06-18T08:20:57.127Z,-54
2018-06-18T08:23:24.375Z,-53
2018-06-18T08:25:51.363Z,-53
2018-06-18T08:28:18.307Z,-53
2018-06-18T08:30:45.191Z,-53
2018-06-18T08:33:12.083Z,-53
2018-06-18T08:35:38.971Z,-54
2018-06-18T08:38:05.879Z,-53
2018-06-18T08:40:32.817Z,-52
2018-06-18T08:42:59.872Z,-53
2018-06-18T08:45:26.775Z,-52
2018-06-18T08:47:53.722Z,-53
2018-06-18T08:50:26.323Z,-53
2018-06-18T08:52:58.940Z,-53
2018-06-18T08:57:33.123Z,-53
2018-06-18T09:00:05.823Z,-52
2018-06-18T09:02:33.142Z,-53
2018-06-18T09:05:05.880Z,-52
2018-06-18T09:07:37.414Z,-53
2018-06-18T09:10:04.708Z,-54
2018-06-18T09:12:31.600Z,-49
2018-06-18T09:14:58.483Z,-49
2018-06-18T09:17:25.401Z,-49
2018-06-18T09:19:52.296Z,-49
2018-06-18T09:22:19.186Z,-49
2018-06-18T09:24:46.071Z,-49
2018-06-18T09:27:14.027Z,-49
2018-06-18T09:29:46.547Z,-49
2018-06-18T09:32:13.902Z,-49
2018-06-18T09:34:41.171Z,-49
2018-06-18T09:37:08.325Z,-49
2018-06-18T09:39:35.275Z,-49
2018-06-18T09:42:02.845Z,-49
2018-06-18T09:44:29.747Z,-49
2018-06-18T09:46:57.259Z,-49
2018-06-18T09:51:31.516Z,-49
2018-06-18T09:54:04.032Z,-49
2018-06-18T09:56:36.663Z,-49
2018-06-18T09:59:09.514Z,-49
2018-06-18T10:01:36.570Z,-49
2018-06-18T10:04:04.195Z,-49
2018-06-18T10:06:34.198Z,-50
2018-06-18T10:09:05.135Z,-49
2018-06-18T10:11:32.544Z,-49
2018-06-18T10:13:59.456Z,-49
2018-06-18T10:16:26.400Z,-49
2018-06-18T10:18:53.768Z,-49
2018-06-18T10:21:20.659Z,-49
2018-06-18T10:23:47.594Z,-49
2018-06-18T10:26:14.488Z,-49
2018-06-18T10:28:41.503Z,-49
2018-06-18T10:31:08.516Z,-49
2018-06-18T10:33:41.256Z,-49
2018-06-18T10:38:21.478Z,-49
2018-06-18T10:40:54.194Z,-50
2018-06-18T10:43:24.275Z,-49
2018-06-18T10:45:51.286Z,-49
2018-06-18T10:48:18.383Z,-49
2018-06-18T10:50:45.298Z,-49
2018-06-18T10:53:12.219Z,-48
2018-06-18T10:55:39.123Z,-48
2018-06-18T10:58:06.052Z,-49
2018-06-18T11:00:32.939Z,-49
2018-06-18T11:02:59.865Z,-49
2018-06-18T11:05:32.631Z,-48
2018-06-18T11:07:59.507Z,-49
2018-06-18T11:10:26.397Z,-49
2018-06-18T11:12:53.654Z,-48
2018-06-18T11:15:20.595Z,-48
2018-06-18T11:17:53.156Z,-49
2018-06-18T11:20:25.692Z,-49
2018-06-18T11:22:58.294Z,-50
2018-06-18T11:25:30.735Z,-49
2018-06-18T11:27:57.679Z,-50
2018-06-18T11:30:24.579Z,-49
2018-06-18T11:32:51.498Z,-49
2018-06-18T11:35:18.391Z,-49
2018-06-18T11:37:45.281Z,-48
2018-06-18T11:40:12.192Z,-49
2018-06-18T11:42:39.114Z,-49
2018-06-18T11:45:06.044Z,-50
2018-06-18T11:47:33.013Z,-49
2018-06-18T11:50:00.436Z,-48
2018-06-18T11:52:27.394Z,-49
2018-06-18T11:54:54.375Z,-49
2018-06-18T11:57:21.294Z,-49
2018-06-18T11:59:53.983Z,-49
2018-06-18T12:02:26.503Z,-48
2018-06-18T12:04:59.287Z,-49
2018-06-18T12:07:31.814Z,-50
2018-06-18T12:09:58.748Z,-49
2018-06-18T12:12:25.638Z,-49
2018-06-18T12:14:52.552Z,-51
2018-06-18T12:17:19.447Z,-51
2018-06-18T12:19:46.331Z,-51
2018-06-18T12:22:13.299Z,-51
2018-06-18T12:24:40.194Z,-51
2018-06-18T12:27:08.403Z,-51
2018-06-18T12:29:35.294Z,-55
2018-06-18T12:32:02.231Z,-51
2018-06-18T12:34:29.163Z,-52
2018-06-18T12:36:56.113Z,-51
2018-06-18T12:39:23.016Z,-51
2018-06-18T12:41:54.499Z,-52
2018-06-18T12:44:21.382Z,-52
2018-06-18T12:46:54.218Z,-52
2018-06-18T12:49:27.790Z,-52
2018-06-18T12:52:00.514Z,-51
2018-06-18T12:54:33.227Z,-51
2018-06-18T12:57:02.876Z,-51
2018-06-18T12:59:29.792Z,-52
2018-06-18T13:02:01.787Z,-51
2018-06-18T13:04:30.592Z,-51
2018-06-18T13:06:57.571Z,-51
2018-06-18T13:09:24.473Z,-51
2018-06-18T13:11:51.708Z,-51
2018-06-18T13:14:18.599Z,-51
2018-06-18T13:16:45.538Z,-51
2018-06-18T13:19:12.482Z,-51
2018-06-18T13:21:39.415Z,-51
2018-06-18T13:24:06.330Z,-51
2018-06-18T13:26:33.267Z,-51
2018-06-18T13:29:00.181Z,-51
2018-06-18T13:31:27.090Z,-51
2018-06-18T13:33:53.983Z,-51
2018-06-18T13:36:20.916Z,-52
2018-06-18T13:38:53.631Z,-51
2018-06-18T13:41:26.396Z,-51
2018-06-18T13:43:59.114Z,-51
2018-06-18T13:46:31.853Z,-51
2018-06-18T13:48:58.747Z,-52
2018-06-18T13:51:26.597Z,-51
2018-06-18T13:53:53.699Z,-53
2018-06-18T13:56:20.630Z,-51
2018-06-18T13:58:47.577Z,-51
2018-06-18T14:01:14.495Z,-51
2018-06-18T14:03:41.874Z,-53
2018-06-18T14:06:08.975Z,-53
2018-06-18T14:08:35.869Z,-52
2018-06-18T14:11:02.798Z,-54
2018-06-18T14:13:30.016Z,-53
2018-06-18T14:15:57.896Z,-55
2018-06-18T14:18:24.830Z,-55
2018-06-18T14:20:51.670Z,-53
2018-06-18T14:23:18.591Z,-53
2018-06-18T14:25:45.495Z,-53
2018-06-18T14:28:12.435Z,-52
2018-06-18T14:30:44.936Z,-52
2018-06-18T14:33:17.715Z,-54
2018-06-18T14:35:50.335Z,-53
2018-06-18T14:38:23.055Z,-54
2018-06-18T14:40:49.986Z,-54
2018-06-18T14:43:16.927Z,-53
2018-06-18T14:45:43.851Z,-54
2018-06-18T14:48:10.756Z,-54
2018-06-18T14:50:37.642Z,-53
2018-06-18T14:53:04.751Z,-52
2018-06-18T14:55:31.647Z,-53
2018-06-18T14:57:58.587Z,-52
2018-06-18T15:00:28.228Z,-52
2018-06-18T15:02:55.319Z,-53
2018-06-18T15:05:23.553Z,-52
2018-06-18T15:07:50.491Z,-54
2018-06-18T15:10:17.416Z,-54
2018-06-18T15:12:49.166Z,-53
2018-06-18T15:15:21.988Z,-53
2018-06-18T15:17:49.483Z,-53
2018-06-18T15:20:16.463Z,-53
2018-06-18T15:22:47.850Z,-53
2018-06-18T15:25:15.139Z,-53
2018-06-18T15:27:41.991Z,-52
2018-06-18T15:30:09.006Z,-53
2018-06-18T15:32:35.902Z,-52
2018-06-18T15:35:02.826Z,-52
2018-06-18T15:37:29.747Z,-52
2018-06-18T15:39:56.648Z,-53
2018-06-18T15:42:23.567Z,-52
2018-06-18T15:44:50.470Z,-53
2018-06-18T15:47:17.555Z,-53
2018-06-18T15:49:44.467Z,-52
2018-06-18T15:52:11.351Z,-52
2018-06-18T15:54:38.272Z,-52
2018-06-18T15:57:05.254Z,-52
2018-06-18T15:59:32.107Z,-52
2018-06-18T16:01:59.936Z,-52
2018-06-18T16:04:26.811Z,-52
2018-06-18T16:06:53.715Z,-52
2018-06-18T16:09:20.659Z,-52
2018-06-18T16:11:47.556Z,-52
2018-06-18T16:14:14.464Z,-52
2018-06-18T16:16:41.348Z,-52
2018-06-18T16:19:08.299Z,-54
2018-06-18T16:21:35.273Z,-53
2018-06-18T16:24:02.183Z,-52
2018-06-18T16:26:29.058Z,-53
2018-06-18T16:28:56.130Z,-52
2018-06-18T16:31:23.027Z,-52
2018-06-18T16:33:50.917Z,-52
2018-06-18T16:36:17.773Z,-53
2018-06-18T16:38:44.718Z,-52
2018-06-18T16:41:11.619Z,-52
2018-06-18T16:43:38.580Z,-53
2018-06-18T16:46:05.780Z,-52
2018-06-18T16:48:32.696Z,-53
2018-06-18T16:50:59.652Z,-52
2018-06-18T16:53:26.671Z,-52
2018-06-18T16:55:53.620Z,-52
2018-06-18T16:58:20.540Z,-52
2018-06-18T17:00:47.502Z,-52
2018-06-18T17:03:14.395Z,-52
2018-06-18T17:05:41.295Z,-52
2018-06-18T17:08:08.187Z,-53
2018-06-18T17:10:35.088Z,-51
2018-06-18T17:13:01.978Z,-52
2018-06-18T17:15:28.890Z,-52
2018-06-18T17:17:55.831Z,-51
2018-06-18T17:20:22.763Z,-52
2018-06-18T17:22:50.311Z,-51
2018-06-18T17:25:17.211Z,-52
2018-06-18T17:27:44.088Z,-52
2018-06-18T17:30:11.135Z,-52
2018-06-18T17:32:38.114Z,-56
2018-06-18T17:35:05.055Z,-52
2018-06-18T17:37:31.963Z,-52
2018-06-18T17:39:58.872Z,-51
2018-06-18T17:42:25.759Z,-52
2018-06-18T17:44:52.660Z,-52
2018-06-18T17:47:19.550Z,-52
2018-06-18T17:49:46.575Z,-52
2018-06-18T17:52:13.531Z,-53
2018-06-18T17:54:40.438Z,-52
2018-06-18T17:57:07.576Z,-52
2018-06-18T17:59:34.547Z,-52
2018-06-18T18:02:01.429Z,-52
2018-06-18T18:04:28.327Z,-51
2018-06-18T18:06:55.258Z,-52
2018-06-18T18:09:22.166Z,-52
2018-06-18T18:11:49.063Z,-51
2018-06-18T18:14:15.963Z,-52
2018-06-18T18:16:42.910Z,-52
2018-06-18T18:19:09.786Z,-52
2018-06-18T18:21:36.723Z,-52
2018-06-18T18:24:03.631Z,-52
2018-06-18T18:26:30.622Z,-52
2018-06-18T18:28:57.507Z,-51
2018-06-18T18:31:24.626Z,-51
2018-06-18T18:33:51.549Z,-52
2018-06-18T18:36:18.424Z,-51
2018-06-18T18:38:45.331Z,-52
2018-06-18T18:41:12.239Z,-52
2018-06-18T18:43:39.122Z,-53
2018-06-18T18:46:06.059Z,-53
2018-06-18T18:48:32.985Z,-52
2018-06-18T18:50:59.893Z,-52
2018-06-18T18:53:26.802Z,-53
2018-06-18T18:56:06.180Z,-52
2018-06-18T18:59:39.458Z,-52
2018-06-18T19:02:06.735Z,-52
2018-06-18T19:04:37.682Z,-51
2018-06-18T19:07:05.451Z,-52
2018-06-18T19:09:36.384Z,-52
2018-06-18T19:12:03.612Z,-52
2018-06-18T19:14:30.522Z,-52
2018-06-18T19:16:57.428Z,-51
2018-06-18T19:19:27.543Z,-53
2018-06-18T19:21:54.455Z,-52
2018-06-18T19:24:21.384Z,-52
2018-06-18T19:26:48.515Z,-53
2018-06-18T19:29:15.396Z,-52
2018-06-18T19:31:42.535Z,-52
2018-06-18T19:34:14.046Z,-54
2018-06-18T19:36:43.746Z,-52
2018-06-18T19:39:11.979Z,-52
2018-06-18T19:41:39.116Z,-52
2018-06-18T19:44:06.011Z,-51
2018-06-18T19:46:37.085Z,-51
2018-06-18T19:49:08.287Z,-52
2018-06-18T19:51:35.271Z,-51
2018-06-18T19:54:02.165Z,-51
2018-06-18T19:56:29.126Z,-51
2018-06-18T19:58:55.969Z,-51
2018-06-18T20:01:22.919Z,-53
2018-06-18T20:03:49.815Z,-52
2018-06-18T20:06:16.739Z,-52
2018-06-18T20:08:43.635Z,-52
2018-06-18T20:11:10.539Z,-52
2018-06-18T20:13:37.444Z,-52
2018-06-18T20:16:04.326Z,-51
2018-06-18T20:18:31.248Z,-51
2018-06-18T20:20:58.162Z,-51
2018-06-18T20:23:26.012Z,-52
2018-06-18T20:26:03.410Z,-53
2018-06-18T20:28:30.329Z,-52
2018-06-18T20:30:57.486Z,-53
2018-06-18T20:33:24.431Z,-52
2018-06-18T20:35:56.846Z,-52
2018-06-18T20:38:23.747Z,-53
2018-06-18T20:40:50.687Z,-52
2018-06-18T20:43:18.219Z,-52
2018-06-18T20:45:45.144Z,-52
2018-06-18T20:48:12.167Z,-52
2018-06-18T20:50:39.078Z,-52
2018-06-18T20:53:05.999Z,-52
2018-06-18T20:55:32.891Z,-51
2018-06-18T20:57:59.805Z,-51
2018-06-18T21:00:26.738Z,-52
2018-06-18T21:02:53.739Z,-51
2018-06-18T21:05:20.835Z,-51
2018-06-18T21:07:47.801Z,-51
2018-06-18T21:10:14.662Z,-52
2018-06-18T21:12:41.730Z,-52
2018-06-18T21:15:08.746Z,-51
2018-06-18T21:17:35.707Z,-51
2018-06-18T21:20:02.644Z,-51
2018-06-18T21:22:29.791Z,-51
2018-06-18T21:24:56.715Z,-51
2018-06-18T21:27:23.600Z,-51
2018-06-18T21:29:50.803Z,-51
2018-06-18T21:32:17.694Z,-51
2018-06-18T21:34:44.603Z,-51
2018-06-18T21:37:11.503Z,-51
2018-06-18T21:39:38.393Z,-51
2018-06-18T21:42:05.375Z,-51
2018-06-18T21:44:34.799Z,-51
2018-06-18T21:47:01.715Z,-51
2018-06-18T21:49:28.623Z,-52
2018-06-18T21:51:55.601Z,-51
2018-06-18T21:54:22.526Z,-51
2018-06-18T21:56:49.408Z,-51
2018-06-18T21:59:16.445Z,-52
2018-06-18T22:01:44.723Z,-51
2018-06-18T22:04:12.159Z,-52
2018-06-18T22:06:39.059Z,-51
2018-06-18T22:09:15.179Z,-52
2018-06-18T22:11:43.783Z,-52
2018-06-18T22:14:10.803Z,-52
2018-06-18T22:16:39.416Z,-52
2018-06-18T22:19:06.544Z,-51
2018-06-18T22:21:33.475Z,-52
2018-06-18T22:24:00.555Z,-52
2018-06-18T22:26:27.451Z,-51
2018-06-18T22:28:54.363Z,-51
2018-06-18T22:31:21.299Z,-52
2018-06-18T22:33:48.243Z,-53
2018-06-18T22:36:15.286Z,-51
2018-06-18T22:38:42.315Z,-52
2018-06-18T22:41:09.191Z,-52
2018-06-18T22:43:36.180Z,-51
2018-06-18T22:46:03.074Z,-51
2018-06-18T22:48:30.020Z,-51
2018-06-18T22:50:56.918Z,-52
2018-06-18T22:53:23.819Z,-53
2018-06-18T22:55:50.831Z,-51
2018-06-18T22:58:17.731Z,-51
2018-06-18T23:00:44.684Z,-52
2018-06-18T23:03:11.734Z,-52
2018-06-18T23:05:38.630Z,-51
2018-06-18T23:08:05.623Z,-51
2018-06-18T23:10:32.543Z,-51
2018-06-18T23:12:59.459Z,-51
2018-06-18T23:15:26.419Z,-51
2018-06-18T23:17:53.326Z,-52
2018-06-18T23:20:20.222Z,-52
2018-06-18T23:22:47.231Z,-52
2018-06-18T23:25:14.262Z,-51
2018-06-18T23:27:41.162Z,-51
2018-06-18T23:30:08.199Z,-51
2018-06-18T23:32:35.095Z,-51
2018-06-18T23:35:02.045Z,-51
2018-06-18T23:37:28.955Z,-51
2018-06-18T23:39:55.892Z,-51
2018-06-18T23:42:23.071Z,-51
2018-06-18T23:44:50.214Z,-51
2018-06-18T23:47:17.147Z,-52
2018-06-18T23:49:44.307Z,-51
2018-06-18T23:52:11.243Z,-51
2018-06-18T23:54:38.155Z,-51
2018-06-18T23:57:05.068Z,-51
2018-06-18T23:59:31.974Z,-51
